This is the latest recevied weather packets stored in our database for station/object SV1TGC. If no packets are shown the sender has not sent any weather packets the latest 10 day(s).
| Time | Temp. | Humidity | Pressure | Rain* | Wind** | Luminosity | Snow |
|---|---|---|---|---|---|---|---|
| 1777986333 | 21.11° C | 54% | 1015.8 hPa | 0 mm | - | - | - |
| 1777982136 | 23.89° C | 30% | 1016.3 hPa | 0 mm | - | - | - |
| 1777980936 | 23.89° C | 29% | 1016.4 hPa | 0 mm | - | - | - |
| 1777980335 | 23.33° C | 33% | 1016.4 hPa | 0 mm | - | - | - |
| 1777977334 | 23.33° C | 35% | 1016.4 hPa | 0 mm | - | - | - |
| 1777974637 | 22.22° C | 50% | 1016.8 hPa | 0 mm | - | - | - |
| 1777974355 | 21.67° C | 51% | 1016.6 hPa | 0 mm | - | - | - |
| 1777972236 | 21.67° C | 47% | 1016.8 hPa | 0 mm | - | - | - |
| 1777971659 | 21.67° C | 42% | 1016.8 hPa | 0 mm | - | - | - |
| 1777966840 | 20° C | 47% | 1017.1 hPa | 0 mm | - | - | - |
| 1777964738 | 18.89° C | 45% | 1017.1 hPa | 0 mm | - | - | - |
| 1777960533 | 17.22° C | 58% | 1016.9 hPa | 0 mm | - | - | - |
| 1777959637 | 17.22° C | 55% | 1016.8 hPa | 0 mm | - | - | - |
| 1777956933 | 13.33° C | 73% | 1016.7 hPa | 0 mm | - | - | - |
| 1777955455 | 12.78° C | 74% | 1016.6 hPa | 0 mm | - | - | - |
| 1777954560 | 12.78° C | 72% | 1016.6 hPa | 0 mm | - | - | - |
| 1777953648 | 13.33° C | 69% | 1016.5 hPa | 0 mm | - | - | - |
| 1777952744 | 14.44° C | 67% | 1016.4 hPa | 0 mm | - | - | - |
| 1777952433 | 14.44° C | 67% | 1016.4 hPa | 0 mm | - | - | - |
| 1777951848 | 14.44° C | 68% | 1016.5 hPa | 0 mm | - | - | - |
| 1777949147 | 11.67° C | 77% | 1016.6 hPa | 0 mm | - | - | - |
| 1777948259 | 11.67° C | 75% | 1016.6 hPa | 0 mm | - | - | - |
| 1777947036 | 12.78° C | 71% | 1016.7 hPa | 0 mm | - | - | - |
| 1777946736 | 12.78° C | 70% | 1016.8 hPa | 0 mm | - | - | - |
| 1777944649 | 13.33° C | 71% | 1016.9 hPa | 0 mm | - | - | - |
* Rain latest hour (hover to see other rain measurements)
** Current wind speed in m/s (hover to see current wind gust speed)